createdAt,value
2023-03-26T00:01:26.064Z,2.93
2023-03-26T00:03:58.067Z,3.00
2023-03-26T00:06:29.399Z,3.30
2023-03-26T00:08:59.307Z,3.60
2023-03-26T00:11:29.616Z,3.37
2023-03-26T00:13:58.889Z,2.83
2023-03-26T00:16:31.322Z,2.77
2023-03-26T00:19:01.517Z,2.80
2023-03-26T00:21:31.648Z,3.37
2023-03-26T00:24:04.593Z,2.83
2023-03-26T00:26:33.841Z,3.03
2023-03-26T00:29:04.194Z,3.07
2023-03-26T00:31:34.888Z,2.80
2023-03-26T00:34:05.775Z,3.37
2023-03-26T00:36:36.373Z,3.23
2023-03-26T00:39:06.385Z,3.10
2023-03-26T00:41:37.336Z,3.00
2023-03-26T00:44:06.288Z,2.80
2023-03-26T00:46:36.467Z,3.23
2023-03-26T00:49:05.147Z,2.47
2023-03-26T00:51:35.176Z,2.53
2023-03-26T00:54:03.642Z,2.50
2023-03-26T00:56:33.054Z,2.70
2023-03-26T00:59:01.506Z,2.43
2023-03-26T01:01:31.689Z,2.63
2023-03-26T01:04:28.532Z,2.60
2023-03-26T01:07:00.137Z,2.00
2023-03-26T01:09:34.896Z,2.13
2023-03-26T01:12:06.783Z,2.53
2023-03-26T01:14:35.404Z,2.70
2023-03-26T01:17:07.066Z,2.73
2023-03-26T01:19:46.960Z,2.30
2023-03-26T01:22:17.825Z,2.20
2023-03-26T01:24:53.407Z,2.40
2023-03-26T01:27:29.804Z,2.97
2023-03-26T01:30:06.001Z,2.57
2023-03-26T01:32:46.390Z,2.00
2023-03-26T01:35:26.147Z,2.13
2023-03-26T01:38:10.697Z,2.23
2023-03-26T01:40:47.255Z,2.37
2023-03-26T01:43:26.062Z,2.23
2023-03-26T01:45:56.501Z,1.90
2023-03-26T01:48:31.979Z,2.07
2023-03-26T01:51:00.571Z,2.13
2023-03-26T01:53:29.153Z,2.17
2023-03-26T01:56:07.370Z,1.83
2023-03-26T01:58:42.761Z,2.87
2023-03-26T02:01:24.731Z,2.00
2023-03-26T02:04:00.580Z,2.20
2023-03-26T02:06:37.757Z,2.50
2023-03-26T02:09:09.333Z,1.80
2023-03-26T02:11:41.934Z,1.70
2023-03-26T02:14:11.616Z,1.60
2023-03-26T02:16:40.070Z,1.80
2023-03-26T02:19:15.618Z,2.43
2023-03-26T02:21:46.042Z,2.27
2023-03-26T02:24:14.689Z,1.97
2023-03-26T02:26:44.641Z,2.50
2023-03-26T02:29:14.120Z,2.60
2023-03-26T02:31:45.035Z,2.63
2023-03-26T02:34:13.922Z,2.30
2023-03-26T02:36:48.597Z,2.30
2023-03-26T02:39:17.113Z,2.77
2023-03-26T02:41:54.672Z,2.23
2023-03-26T02:44:23.459Z,2.50
2023-03-26T02:47:14.830Z,2.67
2023-03-26T02:49:55.348Z,2.40
2023-03-26T02:52:50.328Z,2.50
2023-03-26T02:55:19.644Z,2.40
2023-03-26T02:57:50.867Z,3.03
2023-03-26T03:00:22.941Z,2.47
2023-03-26T03:02:53.009Z,2.17
2023-03-26T03:05:34.586Z,2.60
2023-03-26T03:08:31.416Z,1.90
2023-03-26T03:11:12.543Z,1.80
2023-03-26T03:13:52.087Z,1.97
2023-03-26T03:16:24.277Z,2.47
2023-03-26T03:18:57.875Z,2.10
2023-03-26T03:21:47.024Z,2.27
2023-03-26T03:24:18.561Z,3.03
2023-03-26T03:26:50.422Z,2.30
2023-03-26T03:29:37.887Z,1.90
2023-03-26T03:32:27.904Z,2.40
2023-03-26T03:35:01.097Z,2.40
2023-03-26T03:37:29.932Z,2.00
2023-03-26T03:39:59.985Z,2.40
2023-03-26T03:42:31.614Z,2.50
2023-03-26T03:45:04.866Z,2.00
2023-03-26T03:47:54.275Z,2.20
2023-03-26T03:50:29.716Z,2.30
2023-03-26T03:53:18.738Z,1.83
2023-03-26T03:55:54.260Z,2.47
2023-03-26T03:58:28.459Z,2.37
2023-03-26T04:01:04.768Z,2.17
2023-03-26T04:03:59.531Z,2.10
2023-03-26T04:06:40.623Z,1.80
2023-03-26T04:09:10.975Z,2.20
2023-03-26T04:11:40.234Z,2.60
2023-03-26T04:14:20.929Z,1.90
2023-03-26T04:17:13.575Z,2.43
2023-03-26T04:19:44.303Z,1.97
2023-03-26T04:22:14.927Z,2.23
2023-03-26T04:24:55.661Z,2.17
2023-03-26T04:27:35.571Z,1.90
2023-03-26T04:30:24.583Z,2.30
2023-03-26T04:33:04.129Z,2.20
2023-03-26T04:35:35.873Z,2.53
2023-03-26T04:38:07.083Z,2.27
2023-03-26T04:40:42.498Z,1.80
2023-03-26T04:43:25.352Z,1.67
2023-03-26T04:46:14.412Z,2.40
2023-03-26T04:48:53.620Z,1.80
2023-03-26T04:51:35.204Z,2.33
2023-03-26T04:54:04.350Z,2.20
2023-03-26T04:56:46.078Z,1.97
2023-03-26T04:59:26.161Z,2.50
2023-03-26T05:01:57.977Z,2.47
2023-03-26T05:04:30.566Z,2.23
2023-03-26T05:07:00.226Z,2.27
2023-03-26T05:09:41.227Z,2.07
2023-03-26T05:12:16.606Z,2.13
2023-03-26T05:15:20.502Z,1.93
2023-03-26T05:17:51.942Z,2.50
2023-03-26T05:20:31.310Z,2.37
2023-03-26T05:23:00.005Z,1.87
2023-03-26T05:25:31.635Z,1.70
2023-03-26T05:28:02.041Z,1.93
2023-03-26T05:30:40.655Z,1.70
2023-03-26T05:33:09.265Z,1.77
2023-03-26T05:35:46.824Z,1.90
2023-03-26T05:38:15.593Z,1.80
2023-03-26T05:40:44.045Z,2.00
2023-03-26T05:43:17.400Z,1.60
2023-03-26T05:45:56.354Z,2.57
2023-03-26T05:48:31.507Z,1.93
2023-03-26T05:51:01.702Z,1.70
2023-03-26T05:53:32.813Z,1.60
2023-03-26T05:56:19.774Z,2.93
2023-03-26T05:59:07.114Z,1.60
2023-03-26T06:01:54.661Z,1.63
2023-03-26T06:05:01.387Z,1.40
2023-03-26T06:07:39.550Z,1.70
2023-03-26T06:10:18.470Z,1.93
2023-03-26T06:12:47.879Z,2.23
2023-03-26T06:15:16.803Z,1.57
2023-03-26T06:17:49.270Z,1.40
2023-03-26T06:20:42.862Z,2.00
2023-03-26T06:23:23.651Z,2.10
2023-03-26T06:26:18.380Z,1.53
2023-03-26T06:28:57.996Z,1.60
2023-03-26T06:31:44.701Z,1.77
2023-03-26T06:34:39.211Z,2.07
2023-03-26T06:37:07.676Z,1.47
2023-03-26T06:39:38.391Z,1.93
2023-03-26T06:42:22.157Z,1.93
2023-03-26T06:45:28.863Z,1.87
2023-03-26T06:48:16.096Z,1.97
2023-03-26T06:50:58.290Z,1.73
2023-03-26T06:53:52.368Z,1.70
2023-03-26T06:56:45.314Z,1.60
2023-03-26T06:59:37.492Z,1.60
2023-03-26T07:02:34.781Z,2.60
2023-03-26T07:05:26.471Z,1.63
2023-03-26T07:08:22.220Z,1.80
2023-03-26T07:11:11.552Z,2.00
2023-03-26T07:14:13.721Z,1.87
2023-03-26T07:16:49.092Z,1.80
2023-03-26T07:19:31.342Z,1.53
2023-03-26T07:22:00.526Z,2.00
2023-03-26T07:24:50.771Z,1.87
2023-03-26T07:27:45.534Z,1.90
2023-03-26T07:30:26.036Z,1.53
2023-03-26T07:33:22.945Z,1.90
2023-03-26T07:36:22.050Z,2.03
2023-03-26T07:39:28.213Z,2.13
2023-03-26T07:42:25.617Z,2.20
2023-03-26T07:45:24.905Z,2.10
2023-03-26T07:48:17.142Z,1.93
2023-03-26T07:51:04.513Z,2.13
2023-03-26T07:54:04.334Z,2.53
2023-03-26T07:56:54.948Z,2.03
2023-03-26T07:59:41.464Z,2.30
2023-03-26T08:03:11.562Z,2.50
2023-03-26T08:06:27.167Z,2.47
2023-03-26T08:09:31.061Z,1.90
2023-03-26T08:12:30.159Z,2.63
2023-03-26T08:15:05.815Z,2.20
2023-03-26T08:17:40.761Z,2.90
2023-03-26T08:20:26.290Z,2.57
2023-03-26T08:23:03.734Z,1.20
2023-03-26T08:25:38.046Z,1.80
2023-03-26T08:28:29.670Z,1.60
2023-03-26T08:30:58.762Z,1.27
2023-03-26T08:33:28.822Z,1.00
2023-03-26T08:35:59.335Z,1.00
2023-03-26T08:38:27.829Z,0.57
2023-03-26T08:41:43.226Z,0.30
2023-03-26T08:45:02.547Z,0.20
2023-03-26T08:48:09.501Z,0.30
2023-03-26T08:51:28.351Z,0.20
2023-03-26T08:54:29.001Z,0.63
2023-03-26T08:57:17.734Z,0.20
2023-03-26T09:00:13.593Z,0.30
2023-03-26T09:03:35.783Z,0.30
2023-03-26T09:06:41.862Z,0.20
2023-03-26T09:09:39.855Z,0.00
2023-03-26T09:12:42.098Z,0.20
2023-03-26T09:15:51.920Z,0.10
2023-03-26T09:18:53.793Z,0.20
2023-03-26T09:21:46.624Z,0.20
2023-03-26T09:25:05.175Z,0.10
2023-03-26T09:27:54.635Z,0.30
2023-03-26T09:30:45.794Z,0.30
2023-03-26T09:33:52.369Z,0.30
2023-03-26T09:36:37.357Z,0.30
2023-03-26T09:39:15.445Z,0.20
2023-03-26T09:41:53.401Z,0.10
2023-03-26T09:45:00.444Z,0.30
2023-03-26T09:47:48.918Z,0.27
2023-03-26T09:50:35.131Z,0.10
2023-03-26T09:53:31.758Z,0.10
2023-03-26T09:56:12.768Z,0.50
2023-03-26T09:59:04.902Z,0.60
2023-03-26T10:01:44.121Z,0.30
2023-03-26T10:04:42.450Z,0.20
2023-03-26T10:07:30.345Z,0.30
2023-03-26T10:10:05.873Z,0.40
2023-03-26T10:12:38.958Z,0.17
2023-03-26T10:15:31.484Z,0.37
2023-03-26T10:18:27.036Z,0.40
2023-03-26T10:21:07.177Z,0.20
2023-03-26T10:24:08.780Z,0.30
2023-03-26T10:27:09.253Z,0.40
2023-03-26T10:29:59.398Z,0.30
2023-03-26T10:32:34.962Z,0.30
2023-03-26T10:35:24.734Z,0.53
2023-03-26T10:38:07.437Z,0.30
2023-03-26T10:40:43.835Z,0.20
2023-03-26T10:43:36.284Z,0.20
2023-03-26T10:46:26.328Z,0.40
2023-03-26T10:49:10.019Z,0.63
2023-03-26T10:51:51.486Z,0.40
2023-03-26T10:54:33.500Z,0.20
2023-03-26T10:57:05.078Z,0.10
2023-03-26T10:59:33.487Z,0.30
2023-03-26T11:02:29.461Z,0.20
2023-03-26T11:05:19.063Z,0.37
2023-03-26T11:07:54.084Z,0.30
2023-03-26T11:10:42.420Z,0.40
2023-03-26T11:13:22.967Z,0.20
2023-03-26T11:15:58.072Z,0.27
2023-03-26T11:18:35.822Z,0.30
2023-03-26T11:21:19.794Z,0.27
2023-03-26T11:24:06.342Z,0.30
2023-03-26T11:26:43.804Z,0.40
2023-03-26T11:29:31.378Z,0.40
2023-03-26T11:32:06.773Z,0.40
2023-03-26T11:34:39.988Z,0.50
2023-03-26T11:37:16.594Z,0.30
2023-03-26T11:39:52.787Z,0.30
2023-03-26T11:42:25.058Z,0.40
2023-03-26T11:44:57.463Z,0.40
2023-03-26T11:47:32.383Z,0.30
2023-03-26T11:50:04.950Z,0.30
2023-03-26T11:52:33.446Z,0.70
2023-03-26T11:55:03.499Z,0.57
2023-03-26T11:57:35.872Z,0.37
2023-03-26T12:00:16.794Z,0.40
2023-03-26T12:02:46.807Z,0.67
2023-03-26T12:05:21.205Z,0.33
2023-03-26T12:07:56.113Z,0.50
2023-03-26T12:10:32.260Z,0.40
2023-03-26T12:13:03.081Z,0.60
2023-03-26T12:15:32.554Z,0.33
2023-03-26T12:18:24.895Z,0.30
2023-03-26T12:21:05.512Z,0.23
2023-03-26T12:23:44.350Z,0.40
2023-03-26T12:26:17.667Z,0.37
2023-03-26T12:28:50.106Z,0.53
2023-03-26T12:31:20.541Z,0.50
2023-03-26T12:34:07.809Z,0.50
2023-03-26T12:36:39.278Z,0.30
2023-03-26T12:40:07.551Z,0.27
2023-03-26T12:44:51.502Z,0.30
2023-03-26T12:45:23.949Z,0.20
2023-03-26T12:48:00.766Z,0.30
2023-03-26T12:50:45.892Z,0.20
2023-03-26T12:53:32.351Z,0.30
2023-03-26T12:56:07.662Z,0.40
2023-03-26T12:58:56.863Z,0.20
2023-03-26T13:01:33.398Z,0.30
2023-03-26T13:04:51.929Z,0.30
2023-03-26T13:07:41.749Z,0.20
2023-03-26T13:10:30.590Z,0.33
2023-03-26T13:13:17.148Z,0.30
2023-03-26T13:15:52.694Z,0.30
2023-03-26T13:18:35.894Z,0.30
2023-03-26T13:21:12.285Z,0.20
2023-03-26T13:23:51.836Z,0.33
2023-03-26T13:26:33.653Z,0.60
2023-03-26T13:29:09.834Z,0.70
2023-03-26T13:31:50.952Z,0.50
2023-03-26T13:34:31.416Z,0.40
2023-03-26T13:37:12.902Z,0.30
2023-03-26T13:39:54.932Z,0.40
2023-03-26T13:42:40.631Z,0.27
2023-03-26T13:45:24.063Z,0.10
2023-03-26T13:47:58.507Z,0.10
2023-03-26T13:50:29.747Z,0.40
2023-03-26T13:53:03.778Z,0.30
2023-03-26T13:55:36.289Z,0.27
2023-03-26T13:58:12.669Z,0.30
2023-03-26T14:00:54.859Z,0.67
2023-03-26T14:03:35.761Z,0.30
2023-03-26T14:06:09.767Z,0.50
2023-03-26T14:08:43.952Z,0.97
2023-03-26T14:11:17.771Z,0.70
2023-03-26T14:13:54.109Z,0.87
2023-03-26T14:16:27.769Z,1.07
2023-03-26T14:19:07.715Z,0.70
2023-03-26T14:22:00.131Z,0.50
2023-03-26T14:25:08.545Z,0.80
2023-03-26T14:27:52.113Z,0.70
2023-03-26T14:30:57.356Z,0.60
2023-03-26T14:33:48.024Z,0.70
2023-03-26T14:36:30.696Z,0.70
2023-03-26T14:39:15.498Z,0.50
2023-03-26T14:41:50.091Z,0.90
2023-03-26T14:44:52.312Z,0.70
2023-03-26T14:47:22.467Z,0.80
2023-03-26T14:50:27.207Z,1.10
2023-03-26T14:53:01.235Z,1.00
2023-03-26T14:56:05.370Z,0.40
2023-03-26T14:59:09.884Z,0.90
2023-03-26T15:02:18.928Z,1.00
2023-03-26T15:05:23.827Z,0.67
2023-03-26T15:08:34.072Z,0.47
2023-03-26T15:11:22.653Z,0.40
2023-03-26T15:14:31.711Z,0.50
2023-03-26T15:17:34.726Z,0.30
2023-03-26T15:20:38.764Z,0.30
2023-03-26T15:23:38.876Z,0.40
2023-03-26T15:26:54.122Z,0.60
2023-03-26T15:29:43.688Z,0.60
2023-03-26T15:32:52.835Z,0.73
2023-03-26T15:35:44.672Z,0.70
2023-03-26T15:38:47.148Z,0.50
2023-03-26T15:41:18.744Z,0.40
2023-03-26T15:44:23.438Z,0.40
2023-03-26T15:47:18.775Z,0.40
2023-03-26T15:49:56.167Z,0.40
2023-03-26T15:52:30.621Z,0.30
2023-03-26T15:55:07.091Z,0.30
2023-03-26T15:57:44.148Z,0.33
2023-03-26T16:00:23.784Z,0.33
2023-03-26T16:03:09.161Z,0.30
2023-03-26T16:06:00.103Z,0.60
2023-03-26T16:08:38.672Z,0.60
2023-03-26T16:11:12.852Z,0.47
2023-03-26T16:13:43.741Z,0.80
2023-03-26T16:16:21.053Z,0.60
2023-03-26T16:18:55.352Z,0.60
2023-03-26T16:21:56.226Z,1.03
2023-03-26T16:24:32.069Z,0.57
2023-03-26T16:27:30.447Z,0.50
2023-03-26T16:30:20.206Z,0.60
2023-03-26T16:32:55.448Z,0.60
2023-03-26T16:35:47.895Z,0.50
2023-03-26T16:38:18.613Z,0.53
2023-03-26T16:41:00.483Z,0.67
2023-03-26T16:43:46.884Z,0.60
2023-03-26T16:46:29.832Z,0.50
2023-03-26T16:49:04.504Z,0.90
2023-03-26T16:51:54.845Z,0.83
2023-03-26T16:54:29.411Z,0.63
2023-03-26T16:57:02.587Z,0.67
2023-03-26T17:00:05.495Z,0.63
2023-03-26T17:02:53.516Z,0.80
2023-03-26T17:05:35.178Z,1.07
2023-03-26T17:08:13.407Z,0.73
2023-03-26T17:10:48.520Z,0.50
2023-03-26T17:13:24.412Z,0.80
2023-03-26T17:16:02.781Z,0.80
2023-03-26T17:18:46.287Z,0.57
2023-03-26T17:21:18.408Z,0.50
2023-03-26T17:24:05.065Z,0.80
2023-03-26T17:26:45.560Z,0.83
2023-03-26T17:29:27.472Z,0.80
2023-03-26T17:32:03.546Z,0.57
2023-03-26T17:35:02.362Z,0.40
2023-03-26T17:37:41.111Z,0.60
2023-03-26T17:40:45.662Z,0.40
2023-03-26T17:43:33.963Z,0.33
2023-03-26T17:46:04.166Z,0.60
2023-03-26T17:48:37.858Z,0.60
2023-03-26T17:51:28.313Z,0.40
2023-03-26T17:53:57.656Z,0.70
2023-03-26T17:56:32.357Z,0.50
2023-03-26T17:59:12.158Z,0.40
2023-03-26T18:01:44.351Z,0.53
2023-03-26T18:04:19.884Z,0.47
2023-03-26T18:07:15.517Z,0.27
2023-03-26T18:10:00.458Z,0.50
2023-03-26T18:12:45.693Z,0.60
2023-03-26T18:15:42.718Z,0.30
2023-03-26T18:18:18.474Z,0.40
2023-03-26T18:20:49.269Z,1.10
2023-03-26T18:23:26.771Z,2.40
2023-03-26T18:25:58.804Z,2.67
2023-03-26T18:28:32.939Z,4.93
2023-03-26T18:31:10.605Z,1.80
2023-03-26T18:33:47.420Z,0.70
2023-03-26T18:36:18.702Z,0.77
2023-03-26T18:38:49.064Z,0.50
2023-03-26T18:41:25.316Z,0.70
2023-03-26T18:43:53.816Z,0.53
2023-03-26T18:46:24.930Z,0.70
2023-03-26T18:48:55.311Z,0.50
2023-03-26T18:51:23.922Z,0.30
2023-03-26T18:53:57.083Z,0.50
2023-03-26T18:56:31.794Z,0.70
2023-03-26T18:59:02.558Z,0.40
2023-03-26T19:01:33.404Z,0.47
2023-03-26T19:04:05.434Z,1.00
2023-03-26T19:06:38.486Z,0.70
2023-03-26T19:09:27.959Z,0.70
2023-03-26T19:12:06.090Z,0.93
2023-03-26T19:14:37.160Z,0.40
2023-03-26T19:17:08.299Z,0.50
2023-03-26T19:19:39.019Z,0.50
2023-03-26T19:22:08.724Z,0.30
2023-03-26T19:24:38.905Z,0.30
2023-03-26T19:27:07.523Z,0.33
2023-03-26T19:29:36.793Z,0.20
2023-03-26T19:32:06.880Z,0.23
2023-03-26T19:34:39.458Z,0.57
2023-03-26T19:37:19.278Z,0.20
2023-03-26T19:39:51.300Z,0.27
2023-03-26T19:42:23.406Z,0.20
2023-03-26T19:44:53.814Z,0.20
2023-03-26T19:47:35.408Z,0.50
2023-03-26T19:50:25.570Z,0.40
2023-03-26T19:53:16.801Z,0.60
2023-03-26T19:55:57.422Z,0.30
2023-03-26T19:58:27.495Z,0.23
2023-03-26T20:00:57.184Z,0.30
2023-03-26T20:03:31.801Z,0.10
2023-03-26T20:06:00.344Z,0.00
2023-03-26T20:08:31.000Z,0.20
2023-03-26T20:11:00.830Z,0.10
2023-03-26T20:13:31.523Z,0.10
2023-03-26T20:16:06.555Z,0.17
2023-03-26T20:18:35.585Z,0.50
2023-03-26T20:21:10.200Z,0.20
2023-03-26T20:23:39.212Z,0.10
2023-03-26T20:26:12.974Z,0.27
2023-03-26T20:28:47.856Z,0.30
2023-03-26T20:31:19.376Z,0.70
2023-03-26T20:33:50.930Z,0.83
2023-03-26T20:36:33.819Z,0.70
2023-03-26T20:39:05.824Z,1.50
2023-03-26T20:41:38.229Z,0.60
2023-03-26T20:44:13.881Z,1.13
2023-03-26T20:46:43.851Z,1.30
2023-03-26T20:49:13.051Z,0.30
2023-03-26T20:51:42.274Z,0.70
2023-03-26T20:54:16.147Z,0.40
2023-03-26T20:56:47.957Z,0.50
2023-03-26T20:59:22.277Z,0.73
2023-03-26T21:01:51.988Z,0.70
2023-03-26T21:04:21.560Z,0.60
2023-03-26T21:06:50.137Z,0.30
2023-03-26T21:09:23.957Z,0.20
2023-03-26T21:12:01.929Z,0.20
2023-03-26T21:14:34.578Z,0.60
2023-03-26T21:17:04.792Z,0.23
2023-03-26T21:19:34.043Z,0.60
2023-03-26T21:22:13.804Z,0.30
2023-03-26T21:25:00.235Z,0.27
2023-03-26T21:27:36.462Z,0.50
2023-03-26T21:30:13.934Z,0.50
2023-03-26T21:32:44.209Z,0.30
2023-03-26T21:35:15.167Z,0.23
2023-03-26T21:37:45.735Z,1.07
2023-03-26T21:40:17.142Z,0.20
2023-03-26T21:42:49.679Z,0.30
2023-03-26T21:45:19.837Z,0.30
2023-03-26T21:47:49.456Z,0.20
2023-03-26T21:50:20.763Z,0.20
2023-03-26T21:52:50.491Z,0.17
2023-03-26T21:55:20.550Z,0.10
2023-03-26T21:58:14.648Z,0.10
2023-03-26T22:00:51.864Z,0.20
2023-03-26T22:03:26.608Z,0.40
2023-03-26T22:06:01.307Z,0.10
2023-03-26T22:08:32.878Z,0.30
2023-03-26T22:11:01.607Z,0.17
2023-03-26T22:13:31.992Z,0.20
2023-03-26T22:16:01.015Z,0.10
2023-03-26T22:18:30.783Z,0.20
2023-03-26T22:21:00.099Z,0.10
2023-03-26T22:23:36.454Z,0.10
2023-03-26T22:26:05.364Z,0.27
2023-03-26T22:28:35.644Z,0.17
2023-03-26T22:31:08.689Z,0.30
2023-03-26T22:33:37.409Z,0.30
2023-03-26T22:36:06.477Z,0.30
2023-03-26T22:38:53.912Z,0.60
2023-03-26T22:41:22.665Z,0.40
2023-03-26T22:43:54.869Z,0.37
2023-03-26T22:46:24.385Z,0.20
2023-03-26T22:48:52.852Z,0.10
2023-03-26T22:51:21.441Z,0.10
2023-03-26T22:53:49.832Z,0.10
2023-03-26T22:56:18.920Z,0.20
2023-03-26T22:58:48.195Z,0.00
2023-03-26T23:01:20.455Z,0.20
2023-03-26T23:03:48.906Z,0.10
2023-03-26T23:06:17.988Z,0.10
2023-03-26T23:08:46.454Z,0.17
2023-03-26T23:11:17.684Z,0.70
2023-03-26T23:13:47.971Z,0.13
2023-03-26T23:16:19.300Z,0.17
2023-03-26T23:18:47.890Z,0.50
2023-03-26T23:21:18.571Z,0.80
2023-03-26T23:23:47.751Z,0.70
2023-03-26T23:26:16.808Z,0.53
2023-03-26T23:28:45.281Z,0.23
2023-03-26T23:31:14.245Z,0.67
2023-03-26T23:33:46.686Z,0.67
2023-03-26T23:36:18.353Z,1.10
2023-03-26T23:38:49.402Z,1.00
2023-03-26T23:41:19.775Z,1.23
2023-03-26T23:43:53.737Z,1.73
2023-03-26T23:46:25.253Z,0.97
2023-03-26T23:48:55.204Z,1.20
2023-03-26T23:51:24.199Z,0.30
2023-03-26T23:53:53.905Z,0.20
2023-03-26T23:56:22.374Z,0.20
2023-03-26T23:58:50.962Z,0.13
